Time;durP1;ratioP1;P1;durP2;ratioP2;P2;SDS_P1;SDS_P2;PMS_P1;PMS_P2;Temp;Humidity;BMP_temperature;BMP_pressure;BME280_temperature;BME280_humidity;BME280_pressure;Samples;Min_cycle;Max_cycle;Signal;HPM_P1;HPM_P2
2021/06/19 00:01:54;;;;;;;6.60;5.55;;;;;;;;;;4998175;28;20745;-60
2021/06/19 00:04:20;;;;;;;6.32;5.53;;;;;;;;;;5000683;28;20109;-60
2021/06/19 00:06:45;;;;;;;6.68;5.60;;;;;;;;;;5003643;28;20038;-61
2021/06/19 00:09:11;;;;;;;6.57;5.63;;;;;;;;;;5015309;28;20037;-60
2021/06/19 00:11:36;;;;;;;6.18;5.40;;;;;;;;;;5001941;28;20068;-61
2021/06/19 00:14:01;;;;;;;6.20;5.57;;;;;;;;;;5003674;28;20036;-60
2021/06/19 00:16:27;;;;;;;7.07;5.25;;;;;;;;;;4999149;28;20064;-61
2021/06/19 00:18:53;;;;;;;7.47;5.28;;;;;;;;;;4997094;28;20025;-60
2021/06/19 00:21:18;;;;;;;6.78;5.60;;;;;;;;;;4999130;28;20519;-60
2021/06/19 00:23:43;;;;;;;8.18;5.60;;;;;;;;;;5003129;28;20036;-61
2021/06/19 00:26:09;;;;;;;5.68;5.13;;;;;;;;;;4997038;28;20026;-61
2021/06/19 00:28:34;;;;;;;5.40;4.90;;;;;;;;;;4997994;28;20362;-60
2021/06/19 00:31:00;;;;;;;6.75;4.57;;;;;;;;;;4999934;28;20092;-61
2021/06/19 00:33:25;;;;;;;5.93;4.47;;;;;;;;;;5002002;28;20037;-61
2021/06/19 00:35:51;;;;;;;8.75;4.68;;;;;;;;;;5001750;28;20034;-60
2021/06/19 00:38:16;;;;;;;8.40;4.60;;;;;;;;;;4997539;28;20121;-60
2021/06/19 00:40:42;;;;;;;6.15;4.10;;;;;;;;;;5006758;28;20033;-60
2021/06/19 00:43:07;;;;;;;9.40;4.60;;;;;;;;;;4999256;28;20413;-60
2021/06/19 00:45:37;;;;;;;5.45;3.63;;;;;;;;;;4999934;28;20026;-60
2021/06/19 00:48:07;;;;;;;5.72;3.60;;;;;;;;;;4995897;28;20105;-60
2021/06/19 00:50:32;;;;;;;5.15;3.30;;;;;;;;;;4999902;28;20497;-60
2021/06/19 00:52:58;;;;;;;5.97;3.00;;;;;;;;;;4997119;28;20334;-60
2021/06/19 00:55:26;;;;;;;8.55;3.20;;;;;;;;;;4995769;28;20026;-60
2021/06/19 00:57:52;;;;;;;9.02;3.03;;;;;;;;;;4999088;28;20041;-60
2021/06/19 01:00:18;;;;;;;6.78;2.72;;;;;;;;;;5004148;28;20097;-61
2021/06/19 01:02:44;;;;;;;6.07;3.55;;;;;;;;;;5003868;28;20029;-61
2021/06/19 01:05:10;;;;;;;10.73;3.20;;;;;;;;;;4999285;28;20038;-60
2021/06/19 01:07:36;;;;;;;5.65;3.17;;;;;;;;;;5001843;28;20112;-60
2021/06/19 01:10:01;;;;;;;7.15;2.65;;;;;;;;;;4999040;28;20037;-61
2021/06/19 01:12:27;;;;;;;5.97;3.03;;;;;;;;;;5005077;28;20170;-60
2021/06/19 01:14:54;;;;;;;9.23;3.03;;;;;;;;;;5006422;28;20034;-60
2021/06/19 01:17:20;;;;;;;7.03;2.58;;;;;;;;;;5003182;28;20503;-60
2021/06/19 01:19:57;;;;;;;7.50;2.85;;;;;;;;;;5006321;28;20029;-60
2021/06/19 01:22:23;;;;;;;7.43;2.92;;;;;;;;;;5005773;28;20034;-60
2021/06/19 01:24:51;;;;;;;4.20;2.80;;;;;;;;;;5022250;28;20674;-61
2021/06/19 01:27:16;;;;;;;8.80;2.75;;;;;;;;;;5006593;28;20029;-60
2021/06/19 01:29:41;;;;;;;4.78;2.33;;;;;;;;;;5003924;28;20030;-60
2021/06/19 01:32:07;;;;;;;4.03;2.60;;;;;;;;;;5003284;28;20026;-61
2021/06/19 01:34:32;;;;;;;5.00;2.50;;;;;;;;;;4999207;28;20438;-60
2021/06/19 01:36:58;;;;;;;8.52;2.80;;;;;;;;;;5007100;28;20103;-60
2021/06/19 01:39:23;;;;;;;7.53;2.95;;;;;;;;;;5006408;28;20025;-60
2021/06/19 01:41:49;;;;;;;5.57;2.60;;;;;;;;;;5001531;28;20121;-60
2021/06/19 01:44:14;;;;;;;6.60;2.53;;;;;;;;;;5006141;28;20057;-60
2021/06/19 01:46:41;;;;;;;8.38;2.58;;;;;;;;;;5003193;28;20026;-60
2021/06/19 01:49:07;;;;;;;9.60;2.83;;;;;;;;;;5002665;28;20053;-60
2021/06/19 01:51:32;;;;;;;5.57;2.50;;;;;;;;;;4997635;28;20026;-60
2021/06/19 01:53:58;;;;;;;9.15;2.67;;;;;;;;;;5020479;28;20026;-60
2021/06/19 01:56:24;;;;;;;7.05;2.58;;;;;;;;;;5003978;28;20041;-60
2021/06/19 01:58:51;;;;;;;4.60;2.45;;;;;;;;;;5002281;28;20065;-60
2021/06/19 02:01:18;;;;;;;9.70;3.03;;;;;;;;;;5005633;28;20032;-60
2021/06/19 02:03:44;;;;;;;6.85;2.97;;;;;;;;;;5007742;28;20072;-60
2021/06/19 02:06:10;;;;;;;7.20;3.10;;;;;;;;;;5000798;28;20026;-60
2021/06/19 02:08:36;;;;;;;10.05;2.92;;;;;;;;;;5004560;28;20050;-60
2021/06/19 02:11:03;;;;;;;8.80;3.00;;;;;;;;;;5002095;28;20095;-60
2021/06/19 02:13:30;;;;;;;7.05;2.95;;;;;;;;;;5008393;28;20026;-61
2021/06/19 02:15:56;;;;;;;6.38;2.92;;;;;;;;;;5002668;28;20029;-60
2021/06/19 02:18:21;;;;;;;7.97;2.85;;;;;;;;;;5003789;28;20105;-60
2021/06/19 02:20:52;;;;;;;7.65;3.22;;;;;;;;;;4997767;28;20192;-60
2021/06/19 02:23:19;;;;;;;8.18;3.13;;;;;;;;;;5002208;28;20021;-60
2021/06/19 02:25:46;;;;;;;6.50;2.72;;;;;;;;;;5001038;28;20080;-60
2021/06/19 02:28:11;;;;;;;6.35;2.50;;;;;;;;;;5004486;28;20057;-60
2021/06/19 02:30:43;;;;;;;7.63;2.75;;;;;;;;;;5004010;28;20483;-60
2021/06/19 02:33:09;;;;;;;7.90;2.80;;;;;;;;;;4995978;28;20038;-60
2021/06/19 02:35:37;;;;;;;8.35;3.13;;;;;;;;;;5004826;28;20025;-60
2021/06/19 02:38:06;;;;;;;3.63;2.25;;;;;;;;;;5000829;28;20408;-60
2021/06/19 02:40:32;;;;;;;5.70;2.70;;;;;;;;;;5000802;28;20037;-60
2021/06/19 02:42:59;;;;;;;5.60;2.75;;;;;;;;;;4997352;28;20109;-60
2021/06/19 02:45:24;;;;;;;7.22;2.50;;;;;;;;;;5007434;28;20030;-60
2021/06/19 02:47:52;;;;;;;6.82;2.40;;;;;;;;;;5003933;28;20033;-60
2021/06/19 02:50:20;;;;;;;8.63;2.80;;;;;;;;;;5001949;28;20031;-60
2021/06/19 02:52:46;;;;;;;6.72;2.83;;;;;;;;;;5004089;28;20037;-60
2021/06/19 02:55:23;;;;;;;6.20;3.25;;;;;;;;;;5001236;28;20400;-60
2021/06/19 02:57:48;;;;;;;4.20;2.40;;;;;;;;;;5001978;28;20052;-60
2021/06/19 03:00:16;;;;;;;4.97;2.45;;;;;;;;;;4995603;28;20484;-60
2021/06/19 03:02:42;;;;;;;8.60;2.90;;;;;;;;;;5004795;28;20026;-60
2021/06/19 03:05:10;;;;;;;9.48;2.80;;;;;;;;;;5003259;28;20030;-60
2021/06/19 03:07:36;;;;;;;6.43;2.80;;;;;;;;;;5005984;28;20032;-60
2021/06/19 03:10:02;;;;;;;6.78;2.60;;;;;;;;;;4999879;28;20030;-60
2021/06/19 03:12:28;;;;;;;5.00;2.70;;;;;;;;;;5004335;28;20040;-60
2021/06/19 03:14:54;;;;;;;7.93;3.22;;;;;;;;;;5006321;28;20026;-60
2021/06/19 03:17:21;;;;;;;7.40;3.00;;;;;;;;;;4999387;28;20538;-60
2021/06/19 03:19:46;;;;;;;8.43;2.80;;;;;;;;;;5004411;28;20030;-60
2021/06/19 03:22:12;;;;;;;6.30;2.95;;;;;;;;;;5007157;28;20048;-60
2021/06/19 03:24:39;;;;;;;7.15;2.70;;;;;;;;;;5000143;28;20529;-60
2021/06/19 03:27:05;;;;;;;7.32;2.50;;;;;;;;;;5003998;28;20117;-60
2021/06/19 03:29:30;;;;;;;7.15;2.85;;;;;;;;;;5003164;28;20061;-60
2021/06/19 03:31:56;;;;;;;6.72;2.85;;;;;;;;;;5003196;28;20042;-60
2021/06/19 03:34:22;;;;;;;9.38;3.47;;;;;;;;;;4999847;28;20077;-60
2021/06/19 03:36:48;;;;;;;7.47;3.38;;;;;;;;;;5005649;28;20061;-60
2021/06/19 03:39:15;;;;;;;6.20;2.85;;;;;;;;;;4999615;28;20531;-60
2021/06/19 03:41:42;;;;;;;6.22;3.28;;;;;;;;;;5005261;28;20109;-60
2021/06/19 03:44:11;;;;;;;10.20;2.83;;;;;;;;;;5001064;28;20491;-60
2021/06/19 03:46:38;;;;;;;8.35;2.92;;;;;;;;;;4997714;28;20022;-60
2021/06/19 03:49:04;;;;;;;7.72;3.00;;;;;;;;;;5000094;28;20033;-60
2021/06/19 03:51:29;;;;;;;7.03;3.00;;;;;;;;;;5005709;28;20538;-60
2021/06/19 03:53:54;;;;;;;7.00;2.88;;;;;;;;;;4996678;28;20034;-60
2021/06/19 03:56:20;;;;;;;7.00;3.05;;;;;;;;;;5017393;28;20043;-60
2021/06/19 03:58:45;;;;;;;6.78;2.83;;;;;;;;;;4999778;28;20250;-60
2021/06/19 04:01:11;;;;;;;7.13;3.10;;;;;;;;;;5001020;28;20030;-60
2021/06/19 04:03:37;;;;;;;6.85;3.20;;;;;;;;;;5001961;28;20133;-60
2021/06/19 04:06:02;;;;;;;7.50;2.95;;;;;;;;;;4999527;28;20022;-61
2021/06/19 04:08:27;;;;;;;6.85;2.83;;;;;;;;;;4998750;28;20033;-60
2021/06/19 04:10:53;;;;;;;8.43;2.90;;;;;;;;;;5005226;28;20038;-60
2021/06/19 04:13:18;;;;;;;8.15;3.08;;;;;;;;;;5000375;28;20030;-60
2021/06/19 04:15:44;;;;;;;8.43;3.47;;;;;;;;;;5001854;28;20032;-60
2021/06/19 04:18:09;;;;;;;8.52;2.83;;;;;;;;;;5004968;28;20045;-60
2021/06/19 04:20:35;;;;;;;7.15;3.20;;;;;;;;;;5000454;28;20018;-61
2021/06/19 04:23:00;;;;;;;6.88;3.00;;;;;;;;;;4997534;28;20021;-60
2021/06/19 04:25:25;;;;;;;6.05;3.03;;;;;;;;;;4999402;28;21127;-60
2021/06/19 04:27:53;;;;;;;7.00;3.33;;;;;;;;;;4994399;28;20217;-60
2021/06/19 04:30:21;;;;;;;7.07;3.15;;;;;;;;;;5006743;28;20202;-60
2021/06/19 04:32:46;;;;;;;9.02;2.95;;;;;;;;;;4997393;28;20198;-60
2021/06/19 04:35:13;;;;;;;6.22;2.90;;;;;;;;;;5005167;28;20199;-60
2021/06/19 04:37:39;;;;;;;5.85;3.00;;;;;;;;;;5004182;28;20186;-60
2021/06/19 04:40:14;;;;;;;5.70;3.05;;;;;;;;;;5000198;28;20116;-60
2021/06/19 04:42:42;;;;;;;5.53;3.55;;;;;;;;;;5001021;28;20108;-60
2021/06/19 04:45:11;;;;;;;6.53;3.20;;;;;;;;;;5004343;28;20101;-60
2021/06/19 04:47:38;;;;;;;8.03;3.30;;;;;;;;;;5000149;28;20076;-60
2021/06/19 04:50:06;;;;;;;6.25;2.97;;;;;;;;;;4998691;28;20026;-60
2021/06/19 04:52:34;;;;;;;6.63;3.15;;;;;;;;;;4996016;28;20033;-60
2021/06/19 04:55:00;;;;;;;7.80;3.28;;;;;;;;;;5003089;28;20254;-60
2021/06/19 04:57:26;;;;;;;6.13;3.17;;;;;;;;;;5002247;28;20109;-61
2021/06/19 04:59:51;;;;;;;7.97;3.35;;;;;;;;;;5001460;28;20017;-61
2021/06/19 05:02:17;;;;;;;5.55;3.25;;;;;;;;;;5003712;28;20057;-60
2021/06/19 05:04:43;;;;;;;7.22;3.58;;;;;;;;;;4997363;28;20022;-60
2021/06/19 05:07:08;;;;;;;7.88;3.85;;;;;;;;;;4999367;28;20092;-60
2021/06/19 05:09:34;;;;;;;7.03;3.53;;;;;;;;;;4999910;28;20484;-59
2021/06/19 05:11:59;;;;;;;7.57;3.85;;;;;;;;;;5005027;28;20395;-59
2021/06/19 05:14:25;;;;;;;7.28;3.55;;;;;;;;;;4995034;28;20046;-59
2021/06/19 05:16:51;;;;;;;7.43;3.50;;;;;;;;;;5002845;28;20026;-60
2021/06/19 05:19:18;;;;;;;8.38;3.33;;;;;;;;;;4996289;28;20132;-60
2021/06/19 05:21:44;;;;;;;9.40;4.05;;;;;;;;;;5005893;28;20496;-60
2021/06/19 05:24:11;;;;;;;11.38;4.28;;;;;;;;;;5001002;28;20034;-60
2021/06/19 05:26:37;;;;;;;10.50;3.65;;;;;;;;;;4999654;28;20022;-60
2021/06/19 05:29:03;;;;;;;8.48;3.63;;;;;;;;;;4999276;28;20105;-60
2021/06/19 05:31:28;;;;;;;7.75;3.58;;;;;;;;;;5006446;28;20265;-60
2021/06/19 05:33:53;;;;;;;7.32;3.53;;;;;;;;;;5005624;28;20456;-60
2021/06/19 05:36:19;;;;;;;6.03;3.20;;;;;;;;;;5004707;28;20041;-60
2021/06/19 05:38:44;;;;;;;8.13;3.75;;;;;;;;;;5000457;28;20026;-60
2021/06/19 05:41:09;;;;;;;7.70;3.50;;;;;;;;;;5017528;28;20073;-60
2021/06/19 05:43:35;;;;;;;8.75;3.35;;;;;;;;;;4999840;28;20563;-60
2021/06/19 05:46:02;;;;;;;8.38;3.10;;;;;;;;;;5004269;28;20511;-60
2021/06/19 05:48:27;;;;;;;7.95;3.40;;;;;;;;;;4998079;28;20099;-60
2021/06/19 05:50:53;;;;;;;8.40;2.90;;;;;;;;;;4999113;28;20492;-60
2021/06/19 05:53:18;;;;;;;6.75;3.45;;;;;;;;;;4997818;28;20042;-60
2021/06/19 05:55:44;;;;;;;9.80;3.72;;;;;;;;;;4996035;28;20530;-60
2021/06/19 05:58:09;;;;;;;6.85;3.50;;;;;;;;;;4993965;28;20034;-60
2021/06/19 06:00:36;;;;;;;6.30;3.80;;;;;;;;;;4999699;28;20496;-60
2021/06/19 06:03:02;;;;;;;7.03;3.72;;;;;;;;;;5010589;28;20026;-60
2021/06/19 06:05:28;;;;;;;9.18;4.07;;;;;;;;;;4998546;28;20037;-60
2021/06/19 06:07:55;;;;;;;9.13;3.78;;;;;;;;;;4999104;28;20473;-60
2021/06/19 06:10:21;;;;;;;6.93;3.67;;;;;;;;;;5004055;28;20055;-60
2021/06/19 06:12:47;;;;;;;9.68;3.13;;;;;;;;;;5002565;28;20033;-60
2021/06/19 06:15:13;;;;;;;8.98;4.07;;;;;;;;;;4998964;28;20030;-60
2021/06/19 06:17:38;;;;;;;9.25;3.33;;;;;;;;;;5019851;28;20038;-60
2021/06/19 06:20:05;;;;;;;13.43;3.67;;;;;;;;;;5002841;28;20092;-60
2021/06/19 06:22:30;;;;;;;9.48;3.45;;;;;;;;;;5005057;28;20041;-60
2021/06/19 06:24:56;;;;;;;7.53;3.50;;;;;;;;;;5007807;28;20026;-60
2021/06/19 06:27:21;;;;;;;11.50;3.63;;;;;;;;;;5003929;28;20030;-60
2021/06/19 06:29:47;;;;;;;7.55;3.20;;;;;;;;;;5004186;28;20026;-60
2021/06/19 06:32:12;;;;;;;9.38;4.07;;;;;;;;;;5001730;28;20111;-60
2021/06/19 06:34:38;;;;;;;8.02;4.50;;;;;;;;;;5002429;28;20060;-59
2021/06/19 06:37:05;;;;;;;5.72;3.40;;;;;;;;;;5003173;28;20104;-59
2021/06/19 06:39:32;;;;;;;6.85;3.67;;;;;;;;;;5004826;28;20048;-58
2021/06/19 06:41:59;;;;;;;6.63;3.08;;;;;;;;;;5006235;28;20118;-59
2021/06/19 06:44:24;;;;;;;5.13;3.08;;;;;;;;;;5001789;28;20026;-60
2021/06/19 06:46:50;;;;;;;7.68;3.28;;;;;;;;;;5003355;28;20499;-59
2021/06/19 06:49:15;;;;;;;7.25;3.40;;;;;;;;;;5004346;28;20432;-59
2021/06/19 06:51:41;;;;;;;6.82;3.58;;;;;;;;;;5000093;28;20042;-59
2021/06/19 06:54:06;;;;;;;8.65;3.53;;;;;;;;;;5004891;28;20037;-59
2021/06/19 06:56:32;;;;;;;9.20;3.55;;;;;;;;;;5001462;28;20030;-60
2021/06/19 06:58:57;;;;;;;8.02;3.60;;;;;;;;;;5008702;28;20065;-59
2021/06/19 07:01:23;;;;;;;9.18;3.08;;;;;;;;;;5000072;28;20633;-59
2021/06/19 07:03:49;;;;;;;8.63;3.40;;;;;;;;;;5001795;28;20021;-59
2021/06/19 07:06:15;;;;;;;8.43;4.10;;;;;;;;;;4999945;28;20026;-59
2021/06/19 07:08:40;;;;;;;6.85;3.47;;;;;;;;;;5002295;28;20562;-59
2021/06/19 07:11:06;;;;;;;7.88;3.60;;;;;;;;;;5003100;28;20103;-59
2021/06/19 07:13:31;;;;;;;7.55;3.50;;;;;;;;;;4998882;28;20083;-59
2021/06/19 07:15:56;;;;;;;9.05;3.55;;;;;;;;;;5003894;28;20445;-59
2021/06/19 07:18:24;;;;;;;9.65;3.45;;;;;;;;;;5000367;28;20026;-59
2021/06/19 07:20:49;;;;;;;9.68;3.78;;;;;;;;;;5000613;28;20117;-59
2021/06/19 07:23:15;;;;;;;7.80;4.03;;;;;;;;;;5000211;28;20108;-59
2021/06/19 07:25:40;;;;;;;8.73;3.70;;;;;;;;;;5003705;28;20476;-59
2021/06/19 07:28:06;;;;;;;8.02;3.63;;;;;;;;;;5005355;28;20033;-59
2021/06/19 07:30:31;;;;;;;9.75;3.80;;;;;;;;;;5005446;28;20033;-59
2021/06/19 07:32:57;;;;;;;7.15;3.40;;;;;;;;;;5001992;28;20034;-59
2021/06/19 07:35:23;;;;;;;9.40;3.90;;;;;;;;;;5002253;28;20087;-59
2021/06/19 07:37:49;;;;;;;9.15;4.60;;;;;;;;;;5005535;28;20101;-59
2021/06/19 07:40:15;;;;;;;9.45;3.45;;;;;;;;;;5001685;28;20197;-60
2021/06/19 07:42:42;;;;;;;7.45;4.20;;;;;;;;;;5009055;28;20029;-59
2021/06/19 07:45:08;;;;;;;9.15;3.92;;;;;;;;;;5019992;28;20037;-59
2021/06/19 07:47:34;;;;;;;7.78;3.72;;;;;;;;;;4999504;28;20408;-60
2021/06/19 07:49:59;;;;;;;9.70;3.90;;;;;;;;;;5000991;28;20037;-59
2021/06/19 07:52:25;;;;;;;8.38;4.50;;;;;;;;;;4997269;28;20025;-59
2021/06/19 07:54:50;;;;;;;6.72;4.15;;;;;;;;;;5004037;28;20168;-59
2021/06/19 07:57:16;;;;;;;6.80;3.70;;;;;;;;;;4996724;28;20038;-59
2021/06/19 07:59:42;;;;;;;10.82;4.55;;;;;;;;;;5006870;28;20061;-59
2021/06/19 08:02:08;;;;;;;7.35;4.18;;;;;;;;;;5000608;28;20408;-60
2021/06/19 08:04:34;;;;;;;10.68;4.28;;;;;;;;;;4999104;28;20774;-59
2021/06/19 08:07:03;;;;;;;9.23;4.18;;;;;;;;;;5002777;28;20500;-59
2021/06/19 08:09:29;;;;;;;;;;;;;;;;;;5002596;28;20038;-59
2021/06/19 08:11:54;;;;;;;8.85;4.10;;;;;;;;;;5003406;28;20265;-59
2021/06/19 08:14:21;;;;;;;6.65;3.90;;;;;;;;;;4999029;28;20034;-60
2021/06/19 08:16:49;;;;;;;6.55;4.10;;;;;;;;;;5004005;28;20038;-59
2021/06/19 08:19:14;;;;;;;7.05;3.88;;;;;;;;;;5016724;28;20057;-59
2021/06/19 08:21:40;;;;;;;8.02;4.32;;;;;;;;;;4999645;28;20061;-59
2021/06/19 08:24:06;;;;;;;7.95;4.38;;;;;;;;;;5004544;28;20054;-59
2021/06/19 08:26:35;;;;;;;5.28;4.07;;;;;;;;;;4998925;28;20019;-59
2021/06/19 08:29:01;;;;;;;7.05;4.00;;;;;;;;;;5002604;28;20025;-59
2021/06/19 08:31:26;;;;;;;8.63;4.55;;;;;;;;;;4996362;28;20048;-58
2021/06/19 08:33:51;;;;;;;9.23;4.60;;;;;;;;;;5004040;28;20181;-60
2021/06/19 08:36:17;;;;;;;5.65;4.00;;;;;;;;;;4999673;28;20030;-58
2021/06/19 08:38:42;;;;;;;9.77;4.53;;;;;;;;;;4999457;28;20022;-59
2021/06/19 08:41:09;;;;;;;7.40;4.47;;;;;;;;;;4998468;28;20434;-59
2021/06/19 08:43:40;;;;;;;8.05;4.47;;;;;;;;;;5001360;28;20026;-60
2021/06/19 08:46:07;;;;;;;7.45;4.22;;;;;;;;;;4996641;28;20094;-59
2021/06/19 08:48:34;;;;;;;12.30;4.18;;;;;;;;;;4999242;28;20021;-60
2021/06/19 08:51:01;;;;;;;7.13;4.18;;;;;;;;;;5002879;28;20427;-60
2021/06/19 08:53:27;;;;;;;8.95;4.18;;;;;;;;;;4998892;28;20496;-60
2021/06/19 08:55:55;;;;;;;9.07;4.47;;;;;;;;;;4996569;28;20037;-60
2021/06/19 08:58:21;;;;;;;8.05;4.22;;;;;;;;;;5003191;28;20034;-59
2021/06/19 09:00:46;;;;;;;10.32;4.55;;;;;;;;;;5002661;28;20037;-59
2021/06/19 09:03:25;;;;;;;11.52;4.65;;;;;;;;;;4998694;28;20507;-60
2021/06/19 09:06:17;;;;;;;7.13;4.65;;;;;;;;;;4995533;28;20018;-59
2021/06/19 09:09:04;;;;;;;8.30;4.15;;;;;;;;;;4995553;28;20519;-60
2021/06/19 09:11:29;;;;;;;13.18;4.38;;;;;;;;;;5004632;28;20034;-59
2021/06/19 09:14:00;;;;;;;7.38;4.30;;;;;;;;;;5004044;28;20040;-59
2021/06/19 09:16:25;;;;;;;8.63;4.00;;;;;;;;;;4997211;28;20571;-60
2021/06/19 09:18:51;;;;;;;8.95;4.10;;;;;;;;;;4993539;28;20030;-59
2021/06/19 09:21:16;;;;;;;6.70;3.90;;;;;;;;;;4997983;28;20560;-60
2021/06/19 09:23:44;;;;;;;11.02;4.60;;;;;;;;;;4998428;28;20026;-60
2021/06/19 09:26:19;;;;;;;8.45;3.92;;;;;;;;;;4998686;28;20445;-60
2021/06/19 09:28:53;;;;;;;8.77;3.80;;;;;;;;;;4997261;28;20034;-60
2021/06/19 09:31:34;;;;;;;8.40;3.95;;;;;;;;;;4994692;28;20042;-60
2021/06/19 09:34:01;;;;;;;7.63;4.18;;;;;;;;;;5016638;28;20534;-60
2021/06/19 09:36:49;;;;;;;7.88;4.35;;;;;;;;;;4999822;28;20034;-60
2021/06/19 09:39:17;;;;;;;11.07;4.50;;;;;;;;;;5000264;28;20038;-60
2021/06/19 09:41:48;;;;;;;6.95;3.97;;;;;;;;;;4998574;28;20042;-60
2021/06/19 09:44:14;;;;;;;6.82;4.10;;;;;;;;;;5001497;28;20036;-61
2021/06/19 09:46:40;;;;;;;10.90;4.50;;;;;;;;;;5002983;28;20109;-61
2021/06/19 09:49:15;;;;;;;11.98;4.40;;;;;;;;;;5015425;28;20137;-60
2021/06/19 09:51:48;;;;;;;6.88;3.80;;;;;;;;;;5005149;28;20033;-61
2021/06/19 09:54:14;;;;;;;11.43;4.45;;;;;;;;;;5004741;28;20026;-61
2021/06/19 09:56:44;;;;;;;9.88;3.90;;;;;;;;;;5007437;28;20076;-63
2021/06/19 09:59:17;;;;;;;11.63;3.60;;;;;;;;;;5003805;28;20064;-61
2021/06/19 10:01:43;;;;;;;8.00;4.00;;;;;;;;;;5004543;28;20031;-62
2021/06/19 10:04:09;;;;;;;9.48;4.30;;;;;;;;;;5004057;28;20025;-61
2021/06/19 10:06:36;;;;;;;8.73;4.20;;;;;;;;;;5020416;28;20021;-62
2021/06/19 10:09:04;;;;;;;7.53;3.80;;;;;;;;;;5000379;28;20405;-62
2021/06/19 10:11:30;;;;;;;9.70;4.10;;;;;;;;;;5001807;28;20042;-62
2021/06/19 10:13:57;;;;;;;8.13;3.85;;;;;;;;;;5001245;28;20399;-61
2021/06/19 10:16:24;;;;;;;12.60;4.30;;;;;;;;;;5002988;28;20030;-64
2021/06/19 10:18:52;;;;;;;6.45;4.10;;;;;;;;;;5003158;28;20404;-60
2021/06/19 10:21:18;;;;;;;8.75;4.30;;;;;;;;;;4999371;28;20041;-61
2021/06/19 10:23:43;;;;;;;8.70;4.18;;;;;;;;;;5006029;28;20030;-61
2021/06/19 10:26:10;;;;;;;5.63;3.90;;;;;;;;;;5009244;28;20527;-60
2021/06/19 10:28:42;;;;;;;10.40;3.97;;;;;;;;;;5005368;28;20269;-60
2021/06/19 10:31:07;;;;;;;7.05;3.63;;;;;;;;;;5001009;28;20538;-61
2021/06/19 10:33:35;;;;;;;7.32;3.65;;;;;;;;;;5004760;28;20042;-61
2021/06/19 10:36:09;;;;;;;10.70;3.78;;;;;;;;;;4997848;28;20373;-61
2021/06/19 10:38:52;;;;;;;10.27;3.90;;;;;;;;;;5005642;28;20041;-61
2021/06/19 10:41:20;;;;;;;10.15;4.28;;;;;;;;;;5000957;28;20042;-62
2021/06/19 10:43:48;;;;;;;13.43;3.90;;;;;;;;;;5007840;28;20487;-61
2021/06/19 10:46:33;;;;;;;9.82;4.05;;;;;;;;;;5006593;28;20053;-61
2021/06/19 10:49:23;;;;;;;9.93;4.07;;;;;;;;;;5000102;28;20022;-60
2021/06/19 10:51:49;;;;;;;8.25;3.65;;;;;;;;;;5003870;28;20029;-62
2021/06/19 10:54:17;;;;;;;13.23;3.97;;;;;;;;;;5003325;28;20535;-61
2021/06/19 10:56:44;;;;;;;9.07;3.38;;;;;;;;;;5009435;28;20043;-62
2021/06/19 10:59:22;;;;;;;9.27;3.53;;;;;;;;;;5002005;28;20388;-61
2021/06/19 11:01:51;;;;;;;6.83;3.83;;;;;;;;;;5008483;28;20026;-61
2021/06/19 11:04:36;;;;;;;60.38;34.47;;;;;;;;;;4997607;28;20064;-61
2021/06/19 11:07:06;;;;;;;393.13;295.52;;;;;;;;;;5001423;28;20429;-61
2021/06/19 11:10:01;;;;;;;526.15;440.20;;;;;;;;;;5000135;28;20054;-61
2021/06/19 11:12:29;;;;;;;122.10;108.30;;;;;;;;;;5013519;28;20041;-61
2021/06/19 11:14:59;;;;;;;93.97;75.22;;;;;;;;;;5003263;28;20457;-60
2021/06/19 11:17:25;;;;;;;11.57;6.70;;;;;;;;;;5004932;28;20460;-60
2021/06/19 11:20:05;;;;;;;9.32;3.92;;;;;;;;;;5003965;28;20057;-61
2021/06/19 11:22:37;;;;;;;13.50;3.85;;;;;;;;;;4994847;28;20097;-61
2021/06/19 11:25:25;;;;;;;8.48;3.35;;;;;;;;;;5005107;28;20030;-61
2021/06/19 11:28:04;;;;;;;8.50;4.05;;;;;;;;;;4995619;28;20024;-61
2021/06/19 11:30:33;;;;;;;8.48;3.53;;;;;;;;;;5001408;28;20037;-61
2021/06/19 11:33:16;;;;;;;;;;;;;;;;;;5000833;28;20495;-61
2021/06/19 11:35:44;;;;;;;8.50;3.42;;;;;;;;;;5000480;28;19955;-61
2021/06/19 11:38:09;;;;;;;7.60;3.42;;;;;;;;;;5003727;28;20033;-59
2021/06/19 11:40:36;;;;;;;10.85;3.70;;;;;;;;;;5001084;28;20027;-61
2021/06/19 11:43:04;;;;;;;10.95;3.75;;;;;;;;;;5003171;28;20050;-61
2021/06/19 11:45:30;;;;;;;11.80;3.50;;;;;;;;;;5003100;28;20038;-59
2021/06/19 11:48:03;;;;;;;12.10;3.40;;;;;;;;;;4999626;28;20038;-61
2021/06/19 11:50:35;;;;;;;11.68;3.30;;;;;;;;;;5009528;28;20036;-59
2021/06/19 11:53:31;;;;;;;11.63;3.28;;;;;;;;;;5003427;28;20034;-60
2021/06/19 11:56:08;;;;;;;7.90;3.13;;;;;;;;;;5004859;28;20037;-60
2021/06/19 11:58:46;;;;;;;8.30;3.47;;;;;;;;;;4995766;28;20503;-59
2021/06/19 12:01:13;;;;;;;8.45;2.90;;;;;;;;;;5001240;28;20037;-60
2021/06/19 12:03:40;;;;;;;9.27;3.40;;;;;;;;;;5003846;28;20395;-60
2021/06/19 12:06:05;;;;;;;9.45;3.78;;;;;;;;;;5001390;28;20034;-61
2021/06/19 12:08:31;;;;;;;8.35;3.28;;;;;;;;;;5005714;28;20025;-61
2021/06/19 12:10:57;;;;;;;6.68;3.17;;;;;;;;;;5001296;28;20030;-59
2021/06/19 12:13:36;;;;;;;9.32;2.92;;;;;;;;;;4994808;28;20026;-60
2021/06/19 12:16:07;;;;;;;9.82;2.95;;;;;;;;;;4998249;28;20039;-60
2021/06/19 12:18:33;;;;;;;10.02;3.30;;;;;;;;;;5002228;28;20030;-60
2021/06/19 12:21:01;;;;;;;6.50;3.10;;;;;;;;;;5000580;28;20508;-60
2021/06/19 12:23:35;;;;;;;;;;;;;;;;;;4999195;28;20030;-61
2021/06/19 12:26:11;;;;;;;7.88;3.15;;;;;;;;;;4997589;28;19914;-61
2021/06/19 12:28:47;;;;;;;9.98;2.92;;;;;;;;;;5005002;28;20095;-62
2021/06/19 12:31:14;;;;;;;10.30;3.10;;;;;;;;;;5003682;28;20532;-63
2021/06/19 12:33:41;;;;;;;7.13;2.90;;;;;;;;;;5003422;28;20034;-61
2021/06/19 12:36:10;;;;;;;9.13;3.15;;;;;;;;;;5001345;28;20026;-61
2021/06/19 12:38:36;;;;;;;8.55;3.40;;;;;;;;;;5001315;28;20554;-61
2021/06/19 12:41:05;;;;;;;9.02;3.33;;;;;;;;;;4998673;28;20034;-61
2021/06/19 12:43:31;;;;;;;12.02;3.60;;;;;;;;;;4996227;28;20041;-61
2021/06/19 12:45:57;;;;;;;10.65;3.03;;;;;;;;;;5002276;28;20048;-61
2021/06/19 12:48:26;;;;;;;8.18;3.45;;;;;;;;;;4996843;28;20489;-61
2021/06/19 12:50:54;;;;;;;5.50;2.70;;;;;;;;;;5002394;28;20033;-61
2021/06/19 12:53:34;;;;;;;12.82;3.08;;;;;;;;;;4997744;28;20082;-61
2021/06/19 12:56:02;;;;;;;10.50;3.35;;;;;;;;;;5001985;28;20065;-61
2021/06/19 12:58:47;;;;;;;9.70;3.53;;;;;;;;;;4998641;28;20030;-60
2021/06/19 13:01:23;;;;;;;8.65;3.25;;;;;;;;;;5001149;28;20092;-60
2021/06/19 13:03:57;;;;;;;8.55;3.30;;;;;;;;;;5002217;28;20025;-60
2021/06/19 13:06:32;;;;;;;6.55;3.58;;;;;;;;;;4994373;28;20129;-60
2021/06/19 13:09:02;;;;;;;9.13;3.22;;;;;;;;;;4998881;28;20085;-61
2021/06/19 13:11:36;;;;;;;7.63;3.00;;;;;;;;;;5002598;28;20054;-61
2021/06/19 13:14:12;;;;;;;10.10;3.22;;;;;;;;;;5003086;28;20503;-61
2021/06/19 13:16:39;;;;;;;9.15;3.50;;;;;;;;;;5005435;28;20033;-60
2021/06/19 13:19:13;;;;;;;10.03;3.27;;;;;;;;;;5005562;28;20589;-60
2021/06/19 13:21:41;;;;;;;9.18;3.50;;;;;;;;;;5006868;28;20239;-60
2021/06/19 13:24:20;;;;;;;7.22;3.30;;;;;;;;;;5008186;28;20496;-60
2021/06/19 13:26:46;;;;;;;10.95;3.20;;;;;;;;;;5005738;28;20030;-60
2021/06/19 13:29:11;;;;;;;9.57;3.55;;;;;;;;;;5005890;28;20044;-60
2021/06/19 13:31:42;;;;;;;9.65;3.20;;;;;;;;;;5004449;28;20119;-61
2021/06/19 13:34:20;;;;;;;6.68;3.45;;;;;;;;;;5004604;28;20511;-60
2021/06/19 13:36:47;;;;;;;6.70;3.35;;;;;;;;;;5005408;28;20499;-63
2021/06/19 13:39:27;;;;;;;6.90;3.15;;;;;;;;;;5004604;28;20462;-63
2021/06/19 13:42:00;;;;;;;5.30;3.33;;;;;;;;;;4999226;28;20181;-62
2021/06/19 13:44:30;;;;;;;11.77;3.50;;;;;;;;;;5003933;28;20029;-63
2021/06/19 13:46:57;;;;;;;7.28;3.05;;;;;;;;;;5002463;28;20018;-62
2021/06/19 13:49:23;;;;;;;7.35;3.33;;;;;;;;;;5002316;28;20058;-64
2021/06/19 13:51:57;;;;;;;8.82;3.45;;;;;;;;;;5003794;28;20029;-62
2021/06/19 13:54:24;;;;;;;6.93;3.05;;;;;;;;;;5005393;28;20105;-64
2021/06/19 13:56:50;;;;;;;8.93;3.60;;;;;;;;;;5017658;28;20669;-62
2021/06/19 13:59:16;;;;;;;8.20;3.20;;;;;;;;;;5007591;28;20116;-63
2021/06/19 14:01:42;;;;;;;6.43;3.17;;;;;;;;;;5004810;28;20133;-63
2021/06/19 14:04:11;;;;;;;7.28;3.22;;;;;;;;;;5002974;28;20488;-62
2021/06/19 14:06:37;;;;;;;6.82;3.00;;;;;;;;;;5003000;28;20112;-64
2021/06/19 14:09:05;;;;;;;9.20;3.25;;;;;;;;;;4998420;28;20129;-63
2021/06/19 14:11:30;;;;;;;9.57;3.60;;;;;;;;;;5004351;28;20030;-62
2021/06/19 14:13:59;;;;;;;6.35;3.40;;;;;;;;;;5002893;28;20273;-62
2021/06/19 14:16:26;;;;;;;6.70;3.47;;;;;;;;;;5001400;28;20514;-63
2021/06/19 14:18:53;;;;;;;6.93;3.20;;;;;;;;;;4999890;28;20703;-64
2021/06/19 14:21:19;;;;;;;9.40;3.40;;;;;;;;;;5004736;28;20029;-63
2021/06/19 14:23:45;;;;;;;8.55;3.70;;;;;;;;;;5001371;28;20022;-63
2021/06/19 14:26:16;;;;;;;6.57;3.17;;;;;;;;;;5000999;28;20472;-62
2021/06/19 14:28:42;;;;;;;6.63;3.28;;;;;;;;;;5002953;28;20108;-63
2021/06/19 14:31:09;;;;;;;6.50;3.50;;;;;;;;;;5003084;28;20029;-62
2021/06/19 14:33:35;;;;;;;8.57;3.47;;;;;;;;;;4999069;28;20089;-63
2021/06/19 14:36:02;;;;;;;6.70;3.53;;;;;;;;;;5001191;28;20055;-63
2021/06/19 14:38:27;;;;;;;8.77;3.53;;;;;;;;;;5001732;28;20026;-62
2021/06/19 14:40:53;;;;;;;7.28;3.67;;;;;;;;;;4997083;28;20377;-63
2021/06/19 14:43:19;;;;;;;10.32;3.55;;;;;;;;;;5000471;28;20448;-62
2021/06/19 14:45:44;;;;;;;10.07;3.50;;;;;;;;;;5003964;28;20056;-63